createdAt,value
2019-06-07T00:04:11.981Z,8.4
2019-06-07T00:09:15.226Z,8.5
2019-06-07T00:14:21.062Z,7.2
2019-06-07T00:19:27.064Z,6.8
2019-06-07T00:24:32.917Z,7
2019-06-07T00:29:38.482Z,10.4
2019-06-07T00:34:41.959Z,7.2
2019-06-07T00:40:15.984Z,7.8
2019-06-07T00:44:56.228Z,8
2019-06-07T00:50:01.496Z,7.9
2019-06-07T00:55:07.406Z,7.3
2019-06-07T01:00:14.914Z,11.5
2019-06-07T01:05:30.936Z,7.8
2019-06-07T01:10:54.109Z,7.8
2019-06-07T01:15:30.326Z,7.7
2019-06-07T01:20:36.273Z,8
2019-06-07T01:25:40.445Z,7.3
2019-06-07T01:30:45.774Z,8
2019-06-07T01:35:51.640Z,7.7
2019-06-07T01:40:55.318Z,8.2
2019-06-07T01:46:00.969Z,8.2
2019-06-07T01:51:06.152Z,8.1
2019-06-07T01:56:11.936Z,8.2
2019-06-07T02:01:21.590Z,8.4
2019-06-07T02:06:20.979Z,8.5
2019-06-07T02:11:31.608Z,8.4
2019-06-07T02:16:33.126Z,9.2
2019-06-07T02:21:34.789Z,9.7
2019-06-07T02:26:33.115Z,10.3
2019-06-07T02:31:40.719Z,9.5
2019-06-07T02:36:45.852Z,9.6
2019-06-07T02:41:51.296Z,9.7
2019-06-07T02:46:56.888Z,9.7
2019-06-07T02:52:02.489Z,10.1
2019-06-07T02:57:07.563Z,11
2019-06-07T03:02:15.941Z,10.7
2019-06-07T03:07:21.028Z,10.7
2019-06-07T03:12:29.529Z,9.9
2019-06-07T03:17:38.265Z,9.7
2019-06-07T03:22:41.572Z,9.7
2019-06-07T03:27:50.630Z,9
2019-06-07T03:32:48.899Z,8.9
2019-06-07T03:37:54.506Z,8.6
2019-06-07T03:42:59.815Z,8
2019-06-07T03:48:04.134Z,7.8
2019-06-07T03:53:09.768Z,7.2
2019-06-07T03:58:40.940Z,6.9
2019-06-07T04:03:46.182Z,6.8
2019-06-07T04:08:28.127Z,8.2
2019-06-07T04:13:42.457Z,5.2
2019-06-07T04:18:43.048Z,5
2019-06-07T04:23:46.843Z,4.6
2019-06-07T04:29:32.803Z,4.7
2019-06-07T04:33:52.111Z,4.5
2019-06-07T04:38:57.049Z,4.5
2019-06-07T04:44:02.391Z,4.3
2019-06-07T04:49:09.747Z,4.4
2019-06-07T04:54:14.847Z,4.5
2019-06-07T05:00:22.521Z,4.2
2019-06-07T05:04:26.836Z,4.3
2019-06-07T05:09:43.141Z,4
2019-06-07T05:14:44.301Z,4
2019-06-07T05:19:44.804Z,3.9
2019-06-07T05:24:44.426Z,4
2019-06-07T05:30:36.394Z,3.7
2019-06-07T05:34:52.349Z,4
2019-06-07T05:39:57.684Z,4
2019-06-07T05:45:00.985Z,3.9
2019-06-07T05:50:36.218Z,4
2019-06-07T05:55:09.738Z,4
2019-06-07T06:00:15.435Z,3.8
2019-06-07T06:05:39.824Z,4
2019-06-07T06:10:29.247Z,3.8
2019-06-07T06:16:01.026Z,3.9
2019-06-07T06:21:15.957Z,3.6
2019-06-07T06:25:57.301Z,3.8
2019-06-07T06:30:53.478Z,4.1
2019-06-07T06:35:56.927Z,3.8
2019-06-07T06:41:16.887Z,3.6
2019-06-07T06:46:03.146Z,3.7
2019-06-07T06:51:08.975Z,3.6
2019-06-07T06:56:15.371Z,4
2019-06-07T07:01:19.017Z,3.6
2019-06-07T07:06:27.366Z,3.9
2019-06-07T07:11:32.977Z,3.8
2019-06-07T07:16:49.589Z,5.2
2019-06-07T07:21:50.518Z,3.9
2019-06-07T07:26:58.087Z,4
2019-06-07T07:31:57.187Z,3.8
2019-06-07T07:37:02.196Z,4
2019-06-07T07:42:21.938Z,3.9
2019-06-07T07:47:17.201Z,4
2019-06-07T07:52:22.608Z,4
2019-06-07T07:57:28.484Z,4
2019-06-07T08:02:34.233Z,3.9
2019-06-07T08:07:40.099Z,3.9
2019-06-07T08:13:25.325Z,4.1
2019-06-07T08:18:00.295Z,4.1
2019-06-07T08:23:02.127Z,4.2
2019-06-07T08:28:07.495Z,4.3
2019-06-07T08:33:27.340Z,4
2019-06-07T08:38:44.931Z,4.1
2019-06-07T08:43:24.401Z,3.8
2019-06-07T08:48:31.188Z,3.9
2019-06-07T08:53:36.257Z,3.6
2019-06-07T08:54:54.777Z,3.8
2019-06-07T09:00:41.781Z,3.9
2019-06-07T09:05:12.829Z,3.9
2019-06-07T09:10:15.263Z,3.9
2019-06-07T09:15:24.011Z,4
2019-06-07T09:20:38.778Z,3.6
2019-06-07T09:25:23.093Z,3.9
2019-06-07T09:30:28.348Z,4
2019-06-07T09:35:34.039Z,3.6
2019-06-07T09:40:39.594Z,3.5
2019-06-07T09:45:44.544Z,4
2019-06-07T09:50:50.088Z,4.1
2019-06-07T09:55:56.717Z,4.3
2019-06-07T10:01:13.572Z,3.7
2019-06-07T10:06:14.192Z,3.5
2019-06-07T10:11:09.675Z,3.5
2019-06-07T10:16:14.754Z,4.2
2019-06-07T10:21:18.090Z,3.9
2019-06-07T10:26:22.993Z,3.8
2019-06-07T10:31:28.219Z,4.2
2019-06-07T10:36:33.437Z,4.2
2019-06-07T10:41:38.790Z,4.1
2019-06-07T10:46:44.057Z,4
2019-06-07T10:51:48.857Z,3.9
2019-06-07T10:56:53.739Z,4
2019-06-07T11:01:59.000Z,4.2
2019-06-07T11:07:06.388Z,4.1
2019-06-07T11:12:04.298Z,4
2019-06-07T11:17:07.281Z,3.7
2019-06-07T11:22:05.974Z,3.7
2019-06-07T11:27:16.639Z,3.8
2019-06-07T11:32:15.312Z,3.5
2019-06-07T11:37:20.541Z,3.6
2019-06-07T11:42:25.921Z,3.8
2019-06-07T11:47:30.709Z,4.1
2019-06-07T11:52:35.609Z,3.7
2019-06-07T11:57:40.570Z,3.7
2019-06-07T12:02:45.415Z,3.7
2019-06-07T12:07:50.363Z,4
2019-06-07T12:12:55.652Z,3.8
2019-06-07T12:18:01.283Z,4.5
2019-06-07T12:23:06.218Z,3.7
2019-06-07T12:28:12.595Z,4.1
2019-06-07T12:33:21.667Z,4.3
2019-06-07T12:38:27.680Z,3.8
2019-06-07T12:43:32.728Z,3.5
2019-06-07T12:48:38.224Z,4.1
2019-06-07T12:53:43.001Z,3.8
2019-06-07T12:58:48.194Z,3.6
2019-06-07T13:03:53.771Z,4.2
2019-06-07T13:08:59.633Z,3.8
2019-06-07T13:14:04.334Z,4.1
2019-06-07T13:19:09.463Z,4
2019-06-07T13:24:14.324Z,3.9
2019-06-07T13:29:20.453Z,4.1
2019-06-07T13:34:20.473Z,3.8
2019-06-07T13:39:30.517Z,4
2019-06-07T13:44:35.441Z,4.3
2019-06-07T13:49:40.432Z,3.8
2019-06-07T13:54:45.272Z,4
2019-06-07T13:59:50.397Z,4
2019-06-07T14:04:55.562Z,4
2019-06-07T14:10:02.901Z,4.1
2019-06-07T14:15:07.625Z,4.1
2019-06-07T14:20:13.044Z,4.2
2019-06-07T14:25:18.364Z,4.1
2019-06-07T14:30:25.956Z,4.5
2019-06-07T14:35:34.568Z,4.2
2019-06-07T14:40:39.664Z,4.2
2019-06-07T14:45:44.496Z,4.3
2019-06-07T14:50:49.848Z,4.2
2019-06-07T14:55:55.541Z,4.1
2019-06-07T15:01:00.365Z,4.4
2019-06-07T15:06:05.323Z,4.1
2019-06-07T15:11:10.350Z,4.2
2019-06-07T15:16:15.469Z,4.3
2019-06-07T15:21:20.489Z,4.2
2019-06-07T15:26:25.605Z,3.9
2019-06-07T15:31:34.554Z,4.2
2019-06-07T15:36:34.339Z,3.9
2019-06-07T15:41:42.220Z,3.7
2019-06-07T15:46:47.204Z,4.1
2019-06-07T15:51:53.700Z,4
2019-06-07T15:56:59.537Z,4.7
2019-06-07T16:02:03.210Z,4
2019-06-07T16:07:08.151Z,4.3
2019-06-07T16:12:13.355Z,4.3
2019-06-07T16:17:18.938Z,4.3
2019-06-07T16:22:24.578Z,4.4
2019-06-07T16:27:29.344Z,4.6
2019-06-07T16:32:37.058Z,4.2
2019-06-07T16:37:38.153Z,4.2
2019-06-07T16:42:38.338Z,4.8
2019-06-07T16:47:42.272Z,4.6
2019-06-07T16:52:46.416Z,4.6
2019-06-07T16:57:52.672Z,4.2
2019-06-07T17:02:57.688Z,4.2
2019-06-07T17:08:03.048Z,4.2
2019-06-07T17:13:08.692Z,4.1
2019-06-07T17:18:13.578Z,4.3
2019-06-07T17:23:18.599Z,4.3
2019-06-07T17:28:23.467Z,4.1
2019-06-07T17:33:27.066Z,4.3
2019-06-07T17:38:32.041Z,5.2
2019-06-07T17:43:58.377Z,4.8
2019-06-07T17:48:45.531Z,5.9
2019-06-07T17:53:53.208Z,5.9
2019-06-07T17:58:59.816Z,5.7
2019-06-07T18:04:03.612Z,6.6
2019-06-07T18:09:08.536Z,5.8
2019-06-07T18:14:17.632Z,6.8
2019-06-07T18:19:22.594Z,7.2
2019-06-07T18:24:27.525Z,7.1
2019-06-07T18:29:32.741Z,6.6
2019-06-07T18:34:40.733Z,5.8
2019-06-07T18:39:46.923Z,5.7
2019-06-07T18:44:48.922Z,5.6
2019-06-07T18:49:57.449Z,4.7
2019-06-07T18:55:01.602Z,4.6
2019-06-07T19:00:06.445Z,4.5
2019-06-07T19:05:11.292Z,5
2019-06-07T19:10:16.389Z,4.7
2019-06-07T19:15:21.508Z,5.5
2019-06-07T19:20:26.315Z,6.4
2019-06-07T19:25:32.945Z,5.3
2019-06-07T19:30:38.289Z,5.8
2019-06-07T19:35:43.977Z,5.4
2019-06-07T19:40:49.191Z,5.6
2019-06-07T19:45:56.169Z,5.7
2019-06-07T19:51:04.001Z,5.2
2019-06-07T19:56:10.310Z,5
2019-06-07T20:01:15.195Z,22.4
2019-06-07T20:06:20.253Z,35.5
2019-06-07T20:11:25.440Z,13.2
2019-06-07T20:16:29.623Z,9
2019-06-07T20:21:33.216Z,7.8
2019-06-07T20:26:38.006Z,7.5
2019-06-07T20:31:43.565Z,7
2019-06-07T20:36:49.208Z,8.4
2019-06-07T20:41:54.185Z,11.6
2019-06-07T20:47:02.045Z,12.4
2019-06-07T20:52:09.610Z,10.1
2019-06-07T20:57:15.178Z,6.9
2019-06-07T21:02:20.237Z,6.5
2019-06-07T21:07:25.080Z,6.4
2019-06-07T21:12:30.389Z,5.9
2019-06-07T21:17:35.553Z,5.2
2019-06-07T21:22:40.624Z,5.2
2019-06-07T21:27:45.353Z,5.1
2019-06-07T21:32:49.109Z,5
2019-06-07T21:37:54.462Z,4.5
2019-06-07T21:43:00.091Z,4.9
2019-06-07T21:48:09.497Z,4.5
2019-06-07T21:53:17.631Z,4.6
2019-06-07T21:58:22.901Z,4.6
2019-06-07T22:03:28.078Z,5.5
2019-06-07T22:08:33.412Z,5.3
2019-06-07T22:13:37.307Z,4.8
2019-06-07T22:18:42.954Z,5.1
2019-06-07T22:23:48.217Z,4.8
2019-06-07T22:28:53.324Z,4.6
2019-06-07T22:33:58.047Z,4.8
2019-06-07T22:39:04.139Z,4.5
2019-06-07T22:44:10.715Z,4.8
2019-06-07T22:49:19.514Z,4.5
2019-06-07T22:54:25.047Z,4.5
2019-06-07T22:59:30.728Z,4.6
2019-06-07T23:04:35.886Z,4.6
2019-06-07T23:09:41.523Z,4.9
2019-06-07T23:14:46.886Z,4.9
2019-06-07T23:19:52.315Z,5.2
2019-06-07T23:24:57.380Z,5.1
2019-06-07T23:30:10.645Z,5.5
2019-06-07T23:35:07.928Z,4.9
2019-06-07T23:40:15.200Z,4.8
2019-06-07T23:45:23.264Z,4.9
2019-06-07T23:50:28.931Z,5
2019-06-07T23:55:33.907Z,5.5
